createdAt,value
2023-05-14T00:01:55.614Z,15.63
2023-05-14T00:04:25.286Z,15.78
2023-05-14T00:06:53.399Z,15.94
2023-05-14T00:09:21.681Z,15.87
2023-05-14T00:11:49.678Z,15.86
2023-05-14T00:14:17.919Z,16.03
2023-05-14T00:16:45.934Z,15.83
2023-05-14T00:19:14.386Z,15.78
2023-05-14T00:21:43.896Z,15.88
2023-05-14T00:24:12.161Z,15.73
2023-05-14T00:26:40.176Z,15.73
2023-05-14T00:29:08.597Z,15.59
2023-05-14T00:31:37.023Z,15.46
2023-05-14T00:34:05.840Z,15.35
2023-05-14T00:36:33.889Z,15.27
2023-05-14T00:39:03.744Z,15.59
2023-05-14T00:41:31.814Z,15.41
2023-05-14T00:44:00.170Z,15.46
2023-05-14T00:46:28.498Z,15.41
2023-05-14T00:48:57.032Z,15.52
2023-05-14T00:51:25.835Z,15.42
2023-05-14T00:53:54.278Z,15.49
2023-05-14T00:56:23.841Z,15.31
2023-05-14T00:58:52.244Z,15.30
2023-05-14T01:01:20.310Z,15.43
2023-05-14T01:03:49.999Z,15.35
2023-05-14T01:06:24.958Z,15.32
2023-05-14T01:09:00.577Z,15.06
2023-05-14T01:11:32.290Z,15.11
2023-05-14T01:14:04.776Z,14.95
2023-05-14T01:16:34.942Z,14.92
2023-05-14T01:19:03.804Z,14.83
2023-05-14T01:21:40.750Z,14.98
2023-05-14T01:24:09.461Z,15.13
2023-05-14T01:26:37.734Z,15.04
2023-05-14T01:29:12.764Z,14.99
2023-05-14T01:31:41.861Z,14.98
2023-05-14T01:34:10.452Z,14.94
2023-05-14T01:36:40.109Z,15.12
2023-05-14T01:39:09.951Z,15.11
2023-05-14T01:41:42.997Z,15.17
2023-05-14T01:44:11.632Z,14.94
2023-05-14T01:46:39.800Z,14.93
2023-05-14T01:49:08.230Z,14.98
2023-05-14T01:51:36.421Z,14.91
2023-05-14T01:54:06.236Z,15.06
2023-05-14T01:56:34.281Z,14.90
2023-05-14T01:59:02.821Z,14.85
2023-05-14T02:01:31.690Z,14.82
2023-05-14T02:04:01.020Z,14.92
2023-05-14T02:06:29.138Z,15.04
2023-05-14T02:08:57.627Z,14.89
2023-05-14T02:11:27.199Z,14.81
2023-05-14T02:13:55.493Z,14.93
2023-05-14T02:16:23.604Z,15.00
2023-05-14T02:18:53.262Z,14.90
2023-05-14T02:21:21.297Z,14.96
2023-05-14T02:23:50.142Z,14.90
2023-05-14T02:26:18.204Z,14.90
2023-05-14T02:28:47.856Z,14.79
2023-05-14T02:31:17.586Z,14.80
2023-05-14T02:33:46.055Z,14.66
2023-05-14T02:36:14.229Z,14.93
2023-05-14T02:38:42.503Z,15.04
2023-05-14T02:41:10.483Z,14.74
2023-05-14T02:43:39.401Z,14.72
2023-05-14T02:46:08.880Z,14.65
2023-05-14T02:48:37.136Z,14.37
2023-05-14T02:51:05.214Z,14.17
2023-05-14T02:53:33.507Z,14.05
2023-05-14T02:56:01.508Z,14.25
2023-05-14T02:58:29.835Z,14.34
2023-05-14T03:00:57.886Z,14.26
2023-05-14T03:03:28.106Z,14.26
2023-05-14T03:05:56.664Z,14.19
2023-05-14T03:08:24.988Z,14.41
2023-05-14T03:10:53.018Z,14.39
2023-05-14T03:13:21.270Z,14.34
2023-05-14T03:15:49.386Z,14.04
2023-05-14T03:18:17.658Z,13.95
2023-05-14T03:20:48.751Z,13.69
2023-05-14T03:23:17.046Z,13.67
2023-05-14T03:25:45.054Z,13.62
2023-05-14T03:28:13.264Z,13.56
2023-05-14T03:30:41.448Z,13.51
2023-05-14T03:33:09.945Z,13.53
2023-05-14T03:35:38.107Z,13.48
2023-05-14T03:38:07.729Z,13.51
2023-05-14T03:40:36.072Z,13.49
2023-05-14T03:43:04.434Z,13.23
2023-05-14T03:45:32.924Z,13.24
2023-05-14T03:48:01.139Z,13.01
2023-05-14T03:50:29.914Z,12.71
2023-05-14T03:52:58.253Z,12.88
2023-05-14T03:55:27.643Z,12.74
2023-05-14T03:57:55.906Z,12.65
2023-05-14T04:00:24.692Z,12.58
2023-05-14T04:02:55.530Z,12.59
2023-05-14T04:05:25.184Z,12.64
2023-05-14T04:07:53.488Z,12.64
2023-05-14T04:10:22.151Z,12.64
2023-05-14T04:12:52.082Z,12.65
2023-05-14T04:15:20.283Z,12.64
2023-05-14T04:17:48.670Z,12.68
2023-05-14T04:20:16.847Z,12.66
2023-05-14T04:22:45.582Z,12.66
2023-05-14T04:25:13.576Z,12.48
2023-05-14T04:27:41.902Z,12.55
2023-05-14T04:30:12.471Z,12.62
2023-05-14T04:32:40.769Z,12.77
2023-05-14T04:35:10.172Z,12.83
2023-05-14T04:37:38.513Z,12.98
2023-05-14T04:40:08.895Z,13.11
2023-05-14T04:42:37.128Z,13.14
2023-05-14T04:45:06.174Z,13.35
2023-05-14T04:47:35.944Z,13.53
2023-05-14T04:50:04.209Z,13.42
2023-05-14T04:52:32.423Z,13.30
2023-05-14T04:55:00.476Z,13.16
2023-05-14T04:57:28.847Z,13.21
2023-05-14T04:59:56.872Z,13.28
2023-05-14T05:02:25.136Z,13.62
2023-05-14T05:04:54.550Z,13.68
2023-05-14T05:07:22.784Z,13.61
2023-05-14T05:09:51.025Z,13.60
2023-05-14T05:12:19.308Z,13.88
2023-05-14T05:14:47.268Z,13.88
2023-05-14T05:17:15.709Z,14.01
2023-05-14T05:19:44.630Z,14.06
2023-05-14T05:22:14.364Z,14.08
2023-05-14T05:24:42.404Z,14.08
2023-05-14T05:27:10.667Z,14.14
2023-05-14T05:29:38.728Z,14.13
2023-05-14T05:32:08.218Z,14.17
2023-05-14T05:34:36.731Z,14.12
2023-05-14T05:37:06.050Z,14.21
2023-05-14T05:39:35.627Z,14.28
2023-05-14T05:42:04.293Z,14.36
2023-05-14T05:44:32.257Z,14.31
2023-05-14T05:47:00.628Z,14.37
2023-05-14T05:49:28.798Z,14.34
2023-05-14T05:51:57.508Z,14.45
2023-05-14T05:54:25.757Z,14.49
2023-05-14T05:56:55.512Z,14.44
2023-05-14T05:59:23.456Z,14.51
2023-05-14T06:01:51.759Z,14.46
2023-05-14T06:04:20.168Z,14.47
2023-05-14T06:06:48.373Z,14.37
2023-05-14T06:09:16.504Z,14.25
2023-05-14T06:11:44.739Z,14.38
2023-05-14T06:14:14.120Z,14.54
2023-05-14T06:16:42.506Z,14.56
2023-05-14T06:19:11.133Z,14.67
2023-05-14T06:21:39.578Z,14.75
2023-05-14T06:24:08.096Z,14.72
2023-05-14T06:26:36.422Z,14.73
2023-05-14T06:29:04.398Z,14.68
2023-05-14T06:31:34.040Z,14.84
2023-05-14T06:34:02.050Z,14.80
2023-05-14T06:36:30.318Z,14.96
2023-05-14T06:38:58.458Z,15.06
2023-05-14T06:41:26.844Z,15.45
2023-05-14T06:43:55.207Z,15.65
2023-05-14T06:46:23.537Z,15.76
2023-05-14T06:48:52.994Z,15.78
2023-05-14T06:51:21.345Z,15.88
2023-05-14T06:53:49.391Z,15.99
2023-05-14T06:56:17.664Z,16.01
2023-05-14T06:58:45.629Z,15.88
2023-05-14T07:01:14.135Z,15.94
2023-05-14T07:03:42.166Z,15.81
2023-05-14T07:06:13.561Z,15.81
2023-05-14T07:08:42.183Z,15.83
2023-05-14T07:11:10.404Z,15.82
2023-05-14T07:13:38.443Z,15.79
2023-05-14T07:16:08.802Z,15.69
2023-05-14T07:18:36.804Z,15.69
2023-05-14T07:21:06.494Z,15.75
2023-05-14T07:23:36.459Z,15.80
2023-05-14T07:26:05.604Z,15.88
2023-05-14T07:28:33.886Z,15.97
2023-05-14T07:31:02.192Z,15.97
2023-05-14T07:33:30.250Z,15.74
2023-05-14T07:35:58.545Z,15.84
2023-05-14T07:38:26.683Z,15.61
2023-05-14T07:40:56.419Z,15.92
2023-05-14T07:43:24.427Z,16.02
2023-05-14T07:45:52.899Z,16.15
2023-05-14T07:48:21.014Z,16.06
2023-05-14T07:50:49.788Z,15.89
2023-05-14T07:53:17.909Z,16.01
2023-05-14T07:55:48.046Z,16.00
2023-05-14T07:58:17.447Z,16.19
2023-05-14T08:00:45.783Z,16.25
2023-05-14T08:03:13.997Z,16.39
2023-05-14T08:05:42.249Z,16.39
2023-05-14T08:08:10.281Z,16.68
2023-05-14T08:10:39.003Z,16.82
2023-05-14T08:13:07.385Z,16.75
2023-05-14T08:15:37.024Z,16.97
2023-05-14T08:18:05.209Z,16.89
2023-05-14T08:20:33.526Z,17.05
2023-05-14T08:23:01.602Z,17.03
2023-05-14T08:25:29.976Z,17.10
2023-05-14T08:27:59.644Z,17.00
2023-05-14T08:30:28.338Z,17.17
2023-05-14T08:32:59.031Z,17.30
2023-05-14T08:35:27.357Z,17.30
2023-05-14T08:37:56.821Z,17.39
2023-05-14T08:40:25.400Z,17.53
2023-05-14T08:42:54.038Z,17.56
2023-05-14T08:45:25.924Z,17.47
2023-05-14T08:47:54.282Z,17.50
2023-05-14T08:50:24.298Z,17.54
2023-05-14T08:52:52.710Z,17.41
2023-05-14T08:55:21.120Z,17.38
2023-05-14T08:57:49.614Z,17.24
2023-05-14T09:00:18.601Z,17.26
2023-05-14T09:02:47.615Z,17.28
2023-05-14T09:05:16.312Z,17.49
2023-05-14T09:07:45.854Z,17.47
2023-05-14T09:10:15.340Z,17.87
2023-05-14T09:12:43.390Z,17.91
2023-05-14T09:15:12.000Z,18.02
2023-05-14T09:17:40.031Z,17.93
2023-05-14T09:20:10.470Z,18.00
2023-05-14T09:22:39.887Z,18.09
2023-05-14T09:25:12.133Z,18.15
2023-05-14T09:27:40.225Z,18.15
2023-05-14T09:30:10.237Z,18.22
2023-05-14T09:32:39.738Z,18.25
2023-05-14T09:35:17.454Z,18.34
2023-05-14T09:37:47.301Z,18.57
2023-05-14T09:40:19.042Z,18.71
2023-05-14T09:42:48.102Z,18.72
2023-05-14T09:45:16.582Z,18.86
2023-05-14T09:47:45.098Z,18.92
2023-05-14T09:50:13.815Z,18.98
2023-05-14T09:52:41.834Z,19.10
2023-05-14T09:55:10.577Z,19.15
2023-05-14T09:57:40.636Z,19.22
2023-05-14T10:00:10.321Z,19.29
2023-05-14T10:02:40.892Z,19.26
2023-05-14T10:05:10.161Z,19.37
2023-05-14T10:07:42.574Z,19.38
2023-05-14T10:10:15.025Z,19.27
2023-05-14T10:12:46.783Z,19.30
2023-05-14T10:15:18.726Z,19.43
2023-05-14T10:17:50.653Z,19.41
2023-05-14T10:20:19.019Z,19.53
2023-05-14T10:22:47.343Z,19.57
2023-05-14T10:25:15.781Z,19.51
2023-05-14T10:27:45.282Z,19.66
2023-05-14T10:30:14.129Z,19.68
2023-05-14T10:32:44.012Z,19.77
2023-05-14T10:35:20.357Z,19.78
2023-05-14T10:37:48.690Z,19.81
2023-05-14T10:40:18.464Z,19.91
2023-05-14T10:42:48.115Z,20.05
2023-05-14T10:45:17.528Z,20.10
2023-05-14T10:47:47.479Z,20.26
2023-05-14T10:50:17.384Z,20.26
2023-05-14T10:52:46.171Z,20.12
2023-05-14T10:55:15.646Z,20.34
2023-05-14T10:57:48.179Z,20.45
2023-05-14T11:00:17.406Z,20.49
2023-05-14T11:02:46.729Z,20.53
2023-05-14T11:05:17.521Z,20.89
2023-05-14T11:07:46.822Z,21.01
2023-05-14T11:10:16.445Z,21.20
2023-05-14T11:12:45.612Z,21.19
2023-05-14T11:15:16.816Z,21.25
2023-05-14T11:17:46.129Z,21.30
2023-05-14T11:20:14.780Z,21.31
2023-05-14T11:22:43.615Z,21.34
2023-05-14T11:25:14.289Z,21.49
2023-05-14T11:27:44.042Z,21.52
2023-05-14T11:30:18.262Z,21.68
2023-05-14T11:32:48.340Z,21.65
2023-05-14T11:35:17.018Z,21.72
2023-05-14T11:37:51.035Z,21.77
2023-05-14T11:40:19.962Z,21.84
2023-05-14T11:42:47.998Z,21.84
2023-05-14T11:45:26.060Z,21.96
2023-05-14T11:47:54.736Z,21.88
2023-05-14T11:50:23.508Z,21.83
2023-05-14T11:52:51.891Z,21.91
2023-05-14T11:55:20.888Z,21.78
2023-05-14T11:57:49.099Z,21.92
2023-05-14T12:00:22.111Z,21.98
2023-05-14T12:02:50.748Z,22.05
2023-05-14T12:05:19.969Z,22.28
2023-05-14T12:07:48.296Z,22.32
2023-05-14T12:10:16.570Z,22.33
2023-05-14T12:12:46.453Z,22.22
2023-05-14T12:15:16.296Z,22.40
2023-05-14T12:17:50.730Z,22.40
2023-05-14T12:20:19.090Z,22.38
2023-05-14T12:22:47.153Z,22.18
2023-05-14T12:25:15.554Z,22.20
2023-05-14T12:27:45.858Z,22.11
2023-05-14T12:32:48.823Z,22.17
2023-05-14T12:35:17.483Z,22.28
2023-05-14T12:37:45.461Z,22.31
2023-05-14T12:40:13.949Z,22.44
2023-05-14T12:42:42.072Z,22.61
2023-05-14T12:45:11.079Z,22.60
2023-05-14T12:47:39.140Z,22.60
2023-05-14T12:50:09.860Z,22.65
2023-05-14T12:52:39.715Z,22.70
2023-05-14T12:55:09.944Z,22.47
2023-05-14T12:57:38.849Z,22.64
2023-05-14T13:00:12.959Z,22.83
2023-05-14T13:02:43.660Z,22.78
2023-05-14T13:05:13.901Z,22.94
2023-05-14T13:07:42.215Z,23.04
2023-05-14T13:10:11.336Z,23.20
2023-05-14T13:12:39.636Z,23.27
2023-05-14T13:15:09.051Z,23.17
2023-05-14T13:17:37.285Z,22.93
2023-05-14T13:20:06.654Z,22.72
2023-05-14T13:22:36.070Z,22.64
2023-05-14T13:25:04.892Z,22.65
2023-05-14T13:27:33.627Z,22.67
2023-05-14T13:30:01.844Z,22.80
2023-05-14T13:32:29.989Z,22.95
2023-05-14T13:34:58.289Z,23.02
2023-05-14T13:37:26.791Z,23.04
2023-05-14T13:39:56.471Z,22.94
2023-05-14T13:42:24.573Z,22.75
2023-05-14T13:44:52.799Z,22.50
2023-05-14T13:47:20.860Z,22.41
2023-05-14T13:49:49.096Z,22.42
2023-05-14T13:52:17.145Z,22.33
2023-05-14T13:54:45.487Z,22.27
2023-05-14T13:57:14.918Z,22.64
2023-05-14T13:59:43.216Z,23.52
2023-05-14T14:02:11.257Z,24.18
2023-05-14T14:04:39.498Z,24.08
2023-05-14T14:07:08.216Z,24.63
2023-05-14T14:09:36.889Z,24.54
2023-05-14T14:12:05.537Z,25.00
2023-05-14T14:14:35.169Z,25.20
2023-05-14T14:17:03.166Z,26.24
2023-05-14T14:19:31.389Z,26.51
2023-05-14T14:21:59.406Z,26.15
2023-05-14T14:24:27.724Z,25.50
2023-05-14T14:26:55.875Z,25.53
2023-05-14T14:29:24.145Z,24.87
2023-05-14T14:31:53.619Z,24.59
2023-05-14T14:34:21.864Z,26.22
2023-05-14T14:36:49.947Z,25.14
2023-05-14T14:39:18.216Z,25.85
2023-05-14T14:41:47.506Z,26.35
2023-05-14T14:44:15.779Z,25.84
2023-05-14T14:46:43.827Z,27.17
2023-05-14T14:49:13.424Z,29.08
2023-05-14T14:51:41.712Z,28.87
2023-05-14T14:54:09.942Z,28.41
2023-05-14T14:56:38.129Z,29.06
2023-05-14T14:59:06.413Z,30.42
2023-05-14T15:01:34.534Z,30.56
2023-05-14T15:04:02.993Z,31.13
2023-05-14T15:06:32.274Z,31.56
2023-05-14T15:09:00.648Z,31.27
2023-05-14T15:11:28.824Z,32.27
2023-05-14T15:13:57.190Z,32.53
2023-05-14T15:16:25.311Z,32.56
2023-05-14T15:18:53.731Z,33.41
2023-05-14T15:21:22.166Z,33.04
2023-05-14T15:23:51.732Z,32.67
2023-05-14T15:26:19.813Z,32.28
2023-05-14T15:28:48.045Z,32.78
2023-05-14T15:31:16.327Z,32.70
2023-05-14T15:33:44.631Z,32.99
2023-05-14T15:36:12.892Z,33.12
2023-05-14T15:38:42.145Z,31.49
2023-05-14T15:41:11.505Z,31.85
2023-05-14T15:43:39.830Z,31.94
2023-05-14T15:46:07.884Z,31.47
2023-05-14T15:48:36.785Z,31.54
2023-05-14T15:51:04.908Z,31.39
2023-05-14T15:53:33.217Z,31.88
2023-05-14T15:56:01.275Z,32.46
2023-05-14T15:58:31.047Z,31.45
2023-05-14T16:00:59.097Z,31.13
2023-05-14T16:03:27.415Z,31.14
2023-05-14T16:05:56.026Z,31.45
2023-05-14T16:08:24.406Z,31.90
2023-05-14T16:10:52.433Z,31.07
2023-05-14T16:13:20.690Z,31.02
2023-05-14T16:15:51.063Z,30.74
2023-05-14T16:18:19.540Z,30.44
2023-05-14T16:20:47.649Z,29.84
2023-05-14T16:23:15.920Z,29.75
2023-05-14T16:25:43.960Z,30.43
2023-05-14T16:28:12.324Z,31.12
2023-05-14T16:30:40.410Z,30.58
2023-05-14T16:33:10.013Z,29.70
2023-05-14T16:35:39.272Z,29.67
2023-05-14T16:38:07.499Z,29.17
2023-05-14T16:40:35.735Z,29.26
2023-05-14T16:43:04.157Z,29.57
2023-05-14T16:45:34.708Z,29.66
2023-05-14T16:48:03.037Z,29.88
2023-05-14T16:50:32.562Z,29.79
2023-05-14T16:53:00.827Z,30.24
2023-05-14T16:55:28.873Z,29.85
2023-05-14T16:57:57.234Z,29.30
2023-05-14T17:00:25.427Z,29.42
2023-05-14T17:02:54.114Z,29.15
2023-05-14T17:05:22.325Z,28.99
2023-05-14T17:07:52.012Z,29.30
2023-05-14T17:10:20.039Z,28.99
2023-05-14T17:12:48.372Z,29.34
2023-05-14T17:15:16.422Z,28.73
2023-05-14T17:17:44.883Z,28.52
2023-05-14T17:20:15.312Z,28.83
2023-05-14T17:22:44.944Z,28.57
2023-05-14T17:25:14.544Z,28.63
2023-05-14T17:27:42.564Z,28.70
2023-05-14T17:30:11.446Z,28.54
2023-05-14T17:32:39.602Z,28.29
2023-05-14T17:35:09.606Z,28.11
2023-05-14T17:37:37.651Z,27.98
2023-05-14T17:40:07.043Z,27.73
2023-05-14T17:42:36.657Z,27.81
2023-05-14T17:45:05.833Z,27.66
2023-05-14T17:47:34.070Z,27.23
2023-05-14T17:50:02.404Z,27.24
2023-05-14T17:52:30.662Z,26.99
2023-05-14T17:54:58.964Z,26.71
2023-05-14T17:57:27.157Z,26.04
2023-05-14T17:59:56.737Z,25.57
2023-05-14T18:02:24.953Z,25.37
2023-05-14T18:04:53.299Z,25.16
2023-05-14T18:07:22.492Z,24.79
2023-05-14T18:09:50.763Z,24.68
2023-05-14T18:12:18.770Z,24.48
2023-05-14T18:14:47.030Z,24.40
2023-05-14T18:17:17.154Z,24.12
2023-05-14T18:19:45.529Z,23.81
2023-05-14T18:22:13.632Z,23.66
2023-05-14T18:24:44.037Z,23.43
2023-05-14T18:27:12.339Z,23.24
2023-05-14T18:29:40.595Z,23.07
2023-05-14T18:32:09.097Z,22.87
2023-05-14T18:34:38.759Z,22.65
2023-05-14T18:37:07.082Z,22.51
2023-05-14T18:39:35.443Z,22.35
2023-05-14T18:42:03.430Z,22.40
2023-05-14T18:44:31.813Z,22.40
2023-05-14T18:47:00.456Z,22.18
2023-05-14T18:49:28.754Z,22.20
2023-05-14T18:51:58.162Z,22.15
2023-05-14T18:54:26.461Z,21.97
2023-05-14T18:56:54.507Z,21.78
2023-05-14T18:59:22.859Z,21.78
2023-05-14T19:01:51.259Z,21.60
2023-05-14T19:04:19.599Z,21.42
2023-05-14T19:06:47.616Z,21.06
2023-05-14T19:09:20.903Z,20.67
2023-05-14T19:11:49.084Z,20.59
2023-05-14T19:14:17.376Z,20.40
2023-05-14T19:16:45.455Z,20.39
2023-05-14T19:19:13.914Z,20.15
2023-05-14T19:21:41.985Z,20.07
2023-05-14T19:24:10.283Z,19.95
2023-05-14T19:26:39.745Z,19.78
2023-05-14T19:29:08.047Z,19.38
2023-05-14T19:31:36.122Z,18.46
2023-05-14T19:34:04.453Z,18.04
2023-05-14T19:36:32.580Z,18.28
2023-05-14T19:39:00.923Z,18.03
2023-05-14T19:41:29.194Z,18.15
2023-05-14T19:43:58.791Z,17.87
2023-05-14T19:46:27.331Z,17.94
2023-05-14T19:48:55.573Z,18.11
2023-05-14T19:51:23.626Z,18.49
2023-05-14T19:53:51.910Z,18.65
2023-05-14T19:56:20.067Z,18.74
2023-05-14T19:58:48.349Z,18.87
2023-05-14T20:01:17.797Z,18.86
2023-05-14T20:03:46.083Z,18.98
2023-05-14T20:06:14.390Z,18.93
2023-05-14T20:08:42.769Z,19.06
2023-05-14T20:11:10.914Z,18.94
2023-05-14T20:13:39.257Z,18.65
2023-05-14T20:16:07.444Z,18.47
2023-05-14T20:18:37.110Z,18.32
2023-05-14T20:21:05.531Z,18.21
2023-05-14T20:23:33.779Z,18.15
2023-05-14T20:26:02.316Z,18.07
2023-05-14T20:28:30.626Z,18.13
2023-05-14T20:31:00.166Z,18.19
2023-05-14T20:33:29.170Z,18.19
2023-05-14T20:35:58.668Z,18.20
2023-05-14T20:38:29.302Z,18.07
2023-05-14T20:40:57.504Z,18.03
2023-05-14T20:43:27.290Z,18.01
2023-05-14T20:45:57.648Z,17.97
2023-05-14T20:48:26.155Z,17.82
2023-05-14T20:50:54.186Z,17.94
2023-05-14T20:53:25.236Z,17.98
2023-05-14T20:55:53.280Z,17.89
2023-05-14T20:58:21.557Z,17.72
2023-05-14T21:00:49.605Z,17.72
2023-05-14T21:03:18.018Z,17.60
2023-05-14T21:05:46.143Z,17.60
2023-05-14T21:08:14.401Z,17.58
2023-05-14T21:10:43.757Z,17.52
2023-05-14T21:13:11.943Z,17.59
2023-05-14T21:15:39.966Z,17.73
2023-05-14T21:18:08.330Z,17.73
2023-05-14T21:20:36.648Z,17.84
2023-05-14T21:23:04.874Z,17.67
2023-05-14T21:25:32.951Z,17.68
2023-05-14T21:28:02.534Z,17.68
2023-05-14T21:30:30.598Z,17.53
2023-05-14T21:32:58.909Z,17.36
2023-05-14T21:35:27.162Z,17.41
2023-05-14T21:37:55.616Z,17.27
2023-05-14T21:40:23.592Z,17.17
2023-05-14T21:42:51.786Z,17.20
2023-05-14T21:45:23.400Z,17.23
2023-05-14T21:47:52.114Z,17.42
2023-05-14T21:50:20.421Z,17.49
2023-05-14T21:52:48.652Z,17.46
2023-05-14T21:55:16.849Z,17.34
2023-05-14T21:57:45.124Z,17.25
2023-05-14T22:00:18.448Z,17.22
2023-05-14T22:02:48.134Z,17.15
2023-05-14T22:05:16.218Z,17.06
2023-05-14T22:07:44.520Z,17.00
2023-05-14T22:10:13.801Z,16.94
2023-05-14T22:12:42.952Z,16.85
2023-05-14T22:15:11.929Z,16.85
2023-05-14T22:17:40.301Z,16.67
2023-05-14T22:20:11.180Z,16.52
2023-05-14T22:22:39.595Z,16.30
2023-05-14T22:25:08.266Z,16.41
2023-05-14T22:27:36.572Z,16.58
2023-05-14T22:30:05.321Z,16.44
2023-05-14T22:32:33.737Z,16.17
2023-05-14T22:35:01.818Z,16.26
2023-05-14T22:37:31.600Z,16.23
2023-05-14T22:39:59.556Z,16.24
2023-05-14T22:42:28.366Z,16.21
2023-05-14T22:44:56.299Z,16.17
2023-05-14T22:47:24.798Z,16.17
2023-05-14T22:49:52.915Z,15.95
2023-05-14T22:52:21.216Z,15.92
2023-05-14T22:54:51.011Z,15.94
2023-05-14T22:57:19.308Z,15.80
2023-05-14T22:59:47.355Z,15.73
2023-05-14T23:02:15.799Z,15.66
2023-05-14T23:04:44.269Z,15.89
2023-05-14T23:07:12.541Z,15.90
2023-05-14T23:09:40.494Z,15.83
2023-05-14T23:12:10.665Z,15.83
2023-05-14T23:14:38.680Z,15.75
2023-05-14T23:17:06.926Z,15.49
2023-05-14T23:19:34.977Z,15.52
2023-05-14T23:22:03.328Z,15.52
2023-05-14T23:24:31.334Z,15.67
2023-05-14T23:26:59.533Z,15.76
2023-05-14T23:29:28.849Z,15.73
2023-05-14T23:31:57.264Z,15.78
